| Date | Time | Temp. (oF) | Dew Point (oF) | Rel. Hum. (%) | Press. (in.) | Wind Dir. | Wind Speed (mph) | Hourly Rainfall (in.) |
|
|---|---|---|---|---|---|---|---|---|---|
| 1 | 03/20 | 00:00 | 51 | 37 | 61 | 29.91 | W | 0 | 0.00 |
| 2 | 03/19 | 23:00 | 54 | 37 | 53 | 29.90 | W | 0 | 0.00 |
| 3 | 03/19 | 22:00 | 57 | 37 | 48 | 29.88 | SW | 0 | 0.00 |
| 4 | 03/19 | 21:00 | 58 | 37 | 46 | 29.86 | SSW | 0 | 0.00 |
| 5 | 03/19 | 20:00 | 62 | 35 | 38 | 29.84 | SSW | 0 | 0.00 |
| 6 | 03/19 | 19:00 | 67 | 37 | 34 | 29.83 | SW | 0 | 0.00 |
| 7 | 03/19 | 18:00 | 70 | 37 | 31 | 29.80 | SW | 0 | 0.00 |
| 8 | 03/19 | 17:00 | 70 | 37 | 31 | 29.80 | WSW | 0 | 0.00 |
| 9 | 03/19 | 16:00 | 70 | 37 | 31 | 29.80 | SW | 10 | 0.00 |
| 10 | 03/19 | 15:00 | 69 | 36 | 31 | 29.82 | SW | 7 | 0.00 |
| 11 | 03/19 | 14:00 | 69 | 39 | 34 | 29.84 | W | 0 | 0.00 |
| 12 | 03/19 | 13:00 | 67 | 38 | 36 | 29.86 | SW | 8 | 0.00 |
| 13 | 03/19 | 12:00 | 65 | 36 | 35 | 29.88 | W | 0 | 0.00 |
| 14 | 03/19 | 11:00 | 62 | 37 | 41 | 29.90 | NW | 0 | 0.00 |
| 15 | 03/19 | 10:00 | 55 | 38 | 53 | 29.89 | S | 0 | 0.00 |
| 16 | 03/19 | 09:00 | 45 | 41 | 86 | 29.88 | WNW | 0 | 0.00 |
| 17 | 03/19 | 08:00 | 36 | 33 | 92 | 29.88 | WNW | 0 | 0.00 |
| 18 | 03/19 | 07:00 | 35 | 31 | 88 | 29.86 | WNW | 0 | 0.00 |
| 19 | 03/19 | 06:00 | 36 | 32 | 86 | 29.85 | WNW | 0 | 0.00 |
| 20 | 03/19 | 05:00 | 38 | 33 | 84 | 29.83 | WNW | 0 | 0.00 |
| 21 | 03/19 | 04:00 | 38 | 32 | 79 | 29.81 | WNW | 0 | 0.00 |
| 22 | 03/19 | 03:00 | 39 | 32 | 77 | 29.81 | WNW | 0 | 0.00 |
| 23 | 03/19 | 02:00 | 40 | 34 | 79 | 29.79 | W | 0 | 0.00 |
| 24 | 03/19 | 01:00 | 41 | 34 | 77 | 29.79 | W | 0 | 0.00 |